sensor_id;sensor_type;location;lat;lon;timestamp;temperature;humidity
8132;DHT22;4107;49.212;9.198;2022-07-23T00:01:22;25.30;93.10
8132;DHT22;4107;49.212;9.198;2022-07-23T00:03:49;25.20;93.00
8132;DHT22;4107;49.212;9.198;2022-07-23T00:06:15;25.20;93.20
8132;DHT22;4107;49.212;9.198;2022-07-23T00:08:41;25.20;92.90
8132;DHT22;4107;49.212;9.198;2022-07-23T00:11:07;25.30;92.50
8132;DHT22;4107;49.212;9.198;2022-07-23T00:13:33;25.30;92.40
8132;DHT22;4107;49.212;9.198;2022-07-23T00:15:58;25.40;92.50
8132;DHT22;4107;49.212;9.198;2022-07-23T00:18:24;25.30;92.70
8132;DHT22;4107;49.212;9.198;2022-07-23T00:20:50;25.30;93.10
8132;DHT22;4107;49.212;9.198;2022-07-23T00:23:16;25.30;93.10
8132;DHT22;4107;49.212;9.198;2022-07-23T00:25:42;25.30;92.90
8132;DHT22;4107;49.212;9.198;2022-07-23T00:28:08;25.20;93.20
8132;DHT22;4107;49.212;9.198;2022-07-23T00:30:33;25.20;93.20
8132;DHT22;4107;49.212;9.198;2022-07-23T00:33:01;25.20;93.10
8132;DHT22;4107;49.212;9.198;2022-07-23T00:35:30;25.10;93.50
8132;DHT22;4107;49.212;9.198;2022-07-23T00:37:57;25.20;93.50
8132;DHT22;4107;49.212;9.198;2022-07-23T00:40:23;25.10;93.20
8132;DHT22;4107;49.212;9.198;2022-07-23T00:42:48;25.10;93.30
8132;DHT22;4107;49.212;9.198;2022-07-23T00:45:14;25.10;93.50
8132;DHT22;4107;49.212;9.198;2022-07-23T00:47:40;25.10;93.60
8132;DHT22;4107;49.212;9.198;2022-07-23T00:50:07;25.20;93.60
8132;DHT22;4107;49.212;9.198;2022-07-23T00:52:34;25.20;93.40
8132;DHT22;4107;49.212;9.198;2022-07-23T00:55:00;25.20;93.40
8132;DHT22;4107;49.212;9.198;2022-07-23T00:57:26;25.20;93.50
8132;DHT22;4107;49.212;9.198;2022-07-23T00:59:52;25.10;93.40
8132;DHT22;4107;49.212;9.198;2022-07-23T01:02:17;25.00;93.60
8132;DHT22;4107;49.212;9.198;2022-07-23T01:04:43;25.10;93.60
8132;DHT22;4107;49.212;9.198;2022-07-23T01:07:09;25.10;93.60
8132;DHT22;4107;49.212;9.198;2022-07-23T01:09:35;25.00;93.80
8132;DHT22;4107;49.212;9.198;2022-07-23T01:12:00;24.90;94.00
8132;DHT22;4107;49.212;9.198;2022-07-23T01:14:26;24.80;94.10
8132;DHT22;4107;49.212;9.198;2022-07-23T01:16:52;24.70;94.20
8132;DHT22;4107;49.212;9.198;2022-07-23T01:19:18;24.60;94.20
8132;DHT22;4107;49.212;9.198;2022-07-23T01:21:48;24.60;94.10
8132;DHT22;4107;49.212;9.198;2022-07-23T01:24:15;24.60;94.00
8132;DHT22;4107;49.212;9.198;2022-07-23T01:26:46;24.50;94.10
8132;DHT22;4107;49.212;9.198;2022-07-23T01:29:13;24.50;94.00
8132;DHT22;4107;49.212;9.198;2022-07-23T01:31:39;24.50;94.00
8132;DHT22;4107;49.212;9.198;2022-07-23T01:34:05;24.60;94.80
8132;DHT22;4107;49.212;9.198;2022-07-23T01:36:33;24.50;95.30
8132;DHT22;4107;49.212;9.198;2022-07-23T01:38:58;24.40;95.40
8132;DHT22;4107;49.212;9.198;2022-07-23T01:41:24;24.40;95.40
8132;DHT22;4107;49.212;9.198;2022-07-23T01:43:50;24.50;95.40
8132;DHT22;4107;49.212;9.198;2022-07-23T01:46:15;24.40;95.40
8132;DHT22;4107;49.212;9.198;2022-07-23T01:48:41;24.20;95.70
8132;DHT22;4107;49.212;9.198;2022-07-23T01:51:07;24.10;96.30
8132;DHT22;4107;49.212;9.198;2022-07-23T01:53:33;24.00;96.60
8132;DHT22;4107;49.212;9.198;2022-07-23T01:55:59;23.90;96.80
8132;DHT22;4107;49.212;9.198;2022-07-23T01:58:26;23.90;96.90
8132;DHT22;4107;49.212;9.198;2022-07-23T02:00:52;23.90;97.00
8132;DHT22;4107;49.212;9.198;2022-07-23T02:03:18;23.90;96.60
8132;DHT22;4107;49.212;9.198;2022-07-23T02:05:44;24.00;96.70
8132;DHT22;4107;49.212;9.198;2022-07-23T02:08:09;24.00;96.80
8132;DHT22;4107;49.212;9.198;2022-07-23T02:10:35;24.00;96.80
8132;DHT22;4107;49.212;9.198;2022-07-23T02:13:00;23.90;96.90
8132;DHT22;4107;49.212;9.198;2022-07-23T02:15:26;23.80;97.00
8132;DHT22;4107;49.212;9.198;2022-07-23T02:17:52;23.90;96.90
8132;DHT22;4107;49.212;9.198;2022-07-23T02:20:17;23.80;97.50
8132;DHT22;4107;49.212;9.198;2022-07-23T02:22:44;23.70;97.80
8132;DHT22;4107;49.212;9.198;2022-07-23T02:25:09;23.60;97.90
8132;DHT22;4107;49.212;9.198;2022-07-23T02:27:36;23.50;97.60
8132;DHT22;4107;49.212;9.198;2022-07-23T02:30:02;23.50;97.30
8132;DHT22;4107;49.212;9.198;2022-07-23T02:32:28;23.50;97.30
8132;DHT22;4107;49.212;9.198;2022-07-23T02:34:53;23.40;97.30
8132;DHT22;4107;49.212;9.198;2022-07-23T02:37:19;23.40;97.60
8132;DHT22;4107;49.212;9.198;2022-07-23T02:39:45;23.40;97.80
8132;DHT22;4107;49.212;9.198;2022-07-23T02:42:10;23.40;97.90
8132;DHT22;4107;49.212;9.198;2022-07-23T02:44:36;23.20;98.10
8132;DHT22;4107;49.212;9.198;2022-07-23T02:47:02;23.10;98.40
8132;DHT22;4107;49.212;9.198;2022-07-23T02:49:27;23.20;98.60
8132;DHT22;4107;49.212;9.198;2022-07-23T02:51:53;23.00;98.80
8132;DHT22;4107;49.212;9.198;2022-07-23T02:54:18;23.00;99.10
8132;DHT22;4107;49.212;9.198;2022-07-23T02:56:44;22.90;99.30
8132;DHT22;4107;49.212;9.198;2022-07-23T02:59:10;22.80;99.40
8132;DHT22;4107;49.212;9.198;2022-07-23T03:01:36;22.80;99.80
8132;DHT22;4107;49.212;9.198;2022-07-23T03:04:01;22.80;99.90
8132;DHT22;4107;49.212;9.198;2022-07-23T03:06:27;22.70;99.90
8132;DHT22;4107;49.212;9.198;2022-07-23T03:08:53;22.70;99.90
8132;DHT22;4107;49.212;9.198;2022-07-23T03:11:19;22.80;99.90
8132;DHT22;4107;49.212;9.198;2022-07-23T03:13:44;22.80;99.90
8132;DHT22;4107;49.212;9.198;2022-07-23T03:16:10;22.90;99.90
8132;DHT22;4107;49.212;9.198;2022-07-23T03:18:36;22.80;99.90
8132;DHT22;4107;49.212;9.198;2022-07-23T03:21:02;22.80;99.90
8132;DHT22;4107;49.212;9.198;2022-07-23T03:23:27;22.80;99.90
8132;DHT22;4107;49.212;9.198;2022-07-23T03:25:53;22.80;99.90
8132;DHT22;4107;49.212;9.198;2022-07-23T03:28:19;22.90;99.90
8132;DHT22;4107;49.212;9.198;2022-07-23T03:30:46;22.80;99.90
8132;DHT22;4107;49.212;9.198;2022-07-23T03:33:13;22.90;99.90
8132;DHT22;4107;49.212;9.198;2022-07-23T03:35:39;23.00;99.90
8132;DHT22;4107;49.212;9.198;2022-07-23T03:38:05;22.90;99.90
8132;DHT22;4107;49.212;9.198;2022-07-23T03:40:30;23.00;99.90
8132;DHT22;4107;49.212;9.198;2022-07-23T03:42:56;23.00;99.90
8132;DHT22;4107;49.212;9.198;2022-07-23T03:45:21;23.10;99.90
8132;DHT22;4107;49.212;9.198;2022-07-23T03:47:47;23.10;99.90
8132;DHT22;4107;49.212;9.198;2022-07-23T03:50:13;23.00;99.90
8132;DHT22;4107;49.212;9.198;2022-07-23T03:52:38;23.00;99.90
8132;DHT22;4107;49.212;9.198;2022-07-23T03:55:04;22.90;99.90
8132;DHT22;4107;49.212;9.198;2022-07-23T03:57:30;22.90;99.90
8132;DHT22;4107;49.212;9.198;2022-07-23T03:59:56;22.90;99.90
8132;DHT22;4107;49.212;9.198;2022-07-23T04:02:21;22.90;99.90
8132;DHT22;4107;49.212;9.198;2022-07-23T04:04:47;22.90;99.90
8132;DHT22;4107;49.212;9.198;2022-07-23T04:07:13;22.80;99.90
8132;DHT22;4107;49.212;9.198;2022-07-23T04:09:39;22.80;99.90
8132;DHT22;4107;49.212;9.198;2022-07-23T04:12:08;22.80;99.90
8132;DHT22;4107;49.212;9.198;2022-07-23T04:14:33;22.80;99.90
8132;DHT22;4107;49.212;9.198;2022-07-23T04:16:59;22.80;99.90
8132;DHT22;4107;49.212;9.198;2022-07-23T04:19:26;22.80;99.90
8132;DHT22;4107;49.212;9.198;2022-07-23T04:21:51;22.70;99.90
8132;DHT22;4107;49.212;9.198;2022-07-23T04:24:17;22.70;99.90
8132;DHT22;4107;49.212;9.198;2022-07-23T04:26:44;22.60;99.90
8132;DHT22;4107;49.212;9.198;2022-07-23T04:29:10;22.60;99.90
8132;DHT22;4107;49.212;9.198;2022-07-23T04:31:36;22.50;99.90
8132;DHT22;4107;49.212;9.198;2022-07-23T04:34:01;22.60;99.90
8132;DHT22;4107;49.212;9.198;2022-07-23T04:36:27;22.60;99.90
8132;DHT22;4107;49.212;9.198;2022-07-23T04:38:53;22.60;99.90
8132;DHT22;4107;49.212;9.198;2022-07-23T04:41:18;22.70;99.90
8132;DHT22;4107;49.212;9.198;2022-07-23T04:43:44;22.80;99.90
8132;DHT22;4107;49.212;9.198;2022-07-23T04:46:10;22.80;99.90
8132;DHT22;4107;49.212;9.198;2022-07-23T04:48:36;22.90;99.90
8132;DHT22;4107;49.212;9.198;2022-07-23T04:51:02;23.00;99.90
8132;DHT22;4107;49.212;9.198;2022-07-23T04:53:28;23.10;99.70
8132;DHT22;4107;49.212;9.198;2022-07-23T04:55:53;23.20;99.70
8132;DHT22;4107;49.212;9.198;2022-07-23T04:58:19;23.10;99.40
8132;DHT22;4107;49.212;9.198;2022-07-23T05:00:45;23.10;99.50
8132;DHT22;4107;49.212;9.198;2022-07-23T05:03:11;23.00;99.40
8132;DHT22;4107;49.212;9.198;2022-07-23T05:05:37;23.10;99.40
8132;DHT22;4107;49.212;9.198;2022-07-23T05:08:03;23.00;99.40
8132;DHT22;4107;49.212;9.198;2022-07-23T05:10:28;23.10;99.50
8132;DHT22;4107;49.212;9.198;2022-07-23T05:12:54;22.80;99.80
8132;DHT22;4107;49.212;9.198;2022-07-23T05:15:20;22.70;99.90
8132;DHT22;4107;49.212;9.198;2022-07-23T05:17:45;22.60;99.90
8132;DHT22;4107;49.212;9.198;2022-07-23T05:20:11;22.70;99.90
8132;DHT22;4107;49.212;9.198;2022-07-23T05:22:37;22.60;99.90
8132;DHT22;4107;49.212;9.198;2022-07-23T05:25:02;22.60;99.90
8132;DHT22;4107;49.212;9.198;2022-07-23T05:27:30;22.50;99.90
8132;DHT22;4107;49.212;9.198;2022-07-23T05:29:55;22.50;99.90
8132;DHT22;4107;49.212;9.198;2022-07-23T05:32:21;22.60;99.90
8132;DHT22;4107;49.212;9.198;2022-07-23T05:34:46;22.80;99.90
8132;DHT22;4107;49.212;9.198;2022-07-23T05:37:12;23.00;99.90
8132;DHT22;4107;49.212;9.198;2022-07-23T05:39:38;23.10;99.80
8132;DHT22;4107;49.212;9.198;2022-07-23T05:42:03;22.90;99.90
8132;DHT22;4107;49.212;9.198;2022-07-23T05:44:29;22.60;99.90
8132;DHT22;4107;49.212;9.198;2022-07-23T05:46:55;22.20;99.90
8132;DHT22;4107;49.212;9.198;2022-07-23T05:49:20;21.90;99.90
8132;DHT22;4107;49.212;9.198;2022-07-23T05:51:46;21.50;99.90
8132;DHT22;4107;49.212;9.198;2022-07-23T05:54:12;21.10;99.90
8132;DHT22;4107;49.212;9.198;2022-07-23T05:56:37;20.90;99.90
8132;DHT22;4107;49.212;9.198;2022-07-23T05:59:03;20.70;99.90
8132;DHT22;4107;49.212;9.198;2022-07-23T06:01:28;20.60;99.90
8132;DHT22;4107;49.212;9.198;2022-07-23T06:03:54;20.60;99.90
8132;DHT22;4107;49.212;9.198;2022-07-23T06:06:20;20.60;99.90
8132;DHT22;4107;49.212;9.198;2022-07-23T06:08:45;20.60;99.90
8132;DHT22;4107;49.212;9.198;2022-07-23T06:11:11;20.60;99.90
8132;DHT22;4107;49.212;9.198;2022-07-23T06:13:36;20.70;99.90
8132;DHT22;4107;49.212;9.198;2022-07-23T06:16:02;20.70;99.90
8132;DHT22;4107;49.212;9.198;2022-07-23T06:18:28;20.90;99.90
8132;DHT22;4107;49.212;9.198;2022-07-23T06:20:53;21.00;99.90
8132;DHT22;4107;49.212;9.198;2022-07-23T06:23:20;21.10;99.90
8132;DHT22;4107;49.212;9.198;2022-07-23T06:25:45;21.10;99.90
8132;DHT22;4107;49.212;9.198;2022-07-23T06:28:11;21.20;99.90
8132;DHT22;4107;49.212;9.198;2022-07-23T06:30:37;21.30;99.90
8132;DHT22;4107;49.212;9.198;2022-07-23T06:33:03;21.30;99.90
8132;DHT22;4107;49.212;9.198;2022-07-23T06:35:28;21.40;99.90
8132;DHT22;4107;49.212;9.198;2022-07-23T06:37:54;21.50;99.90
8132;DHT22;4107;49.212;9.198;2022-07-23T06:40:19;21.60;99.90
8132;DHT22;4107;49.212;9.198;2022-07-23T06:42:45;21.70;99.90
8132;DHT22;4107;49.212;9.198;2022-07-23T06:45:11;21.90;99.90
8132;DHT22;4107;49.212;9.198;2022-07-23T06:47:37;22.00;99.90
8132;DHT22;4107;49.212;9.198;2022-07-23T06:50:02;22.20;99.90
8132;DHT22;4107;49.212;9.198;2022-07-23T06:52:28;22.30;99.90
8132;DHT22;4107;49.212;9.198;2022-07-23T06:54:54;22.50;99.90
8132;DHT22;4107;49.212;9.198;2022-07-23T06:57:20;22.70;99.90
8132;DHT22;4107;49.212;9.198;2022-07-23T06:59:45;22.70;99.90
8132;DHT22;4107;49.212;9.198;2022-07-23T07:02:11;22.70;99.90
8132;DHT22;4107;49.212;9.198;2022-07-23T07:04:36;22.80;99.90
8132;DHT22;4107;49.212;9.198;2022-07-23T07:07:02;22.70;99.90
8132;DHT22;4107;49.212;9.198;2022-07-23T07:09:28;22.60;99.90
8132;DHT22;4107;49.212;9.198;2022-07-23T07:11:54;22.50;99.90
8132;DHT22;4107;49.212;9.198;2022-07-23T07:14:21;22.40;99.90
8132;DHT22;4107;49.212;9.198;2022-07-23T07:16:46;22.30;99.90
8132;DHT22;4107;49.212;9.198;2022-07-23T07:19:12;22.30;99.90
8132;DHT22;4107;49.212;9.198;2022-07-23T07:21:37;22.20;99.90
8132;DHT22;4107;49.212;9.198;2022-07-23T07:24:03;22.20;99.90
8132;DHT22;4107;49.212;9.198;2022-07-23T07:26:29;22.10;99.90
8132;DHT22;4107;49.212;9.198;2022-07-23T07:28:56;22.20;99.90
8132;DHT22;4107;49.212;9.198;2022-07-23T07:31:22;22.20;99.90
8132;DHT22;4107;49.212;9.198;2022-07-23T07:33:47;22.20;99.90
8132;DHT22;4107;49.212;9.198;2022-07-23T07:36:13;22.20;99.90
8132;DHT22;4107;49.212;9.198;2022-07-23T07:38:39;22.20;99.90
8132;DHT22;4107;49.212;9.198;2022-07-23T07:41:04;22.20;99.90
8132;DHT22;4107;49.212;9.198;2022-07-23T07:43:30;22.20;99.90
8132;DHT22;4107;49.212;9.198;2022-07-23T07:45:55;22.30;99.90
8132;DHT22;4107;49.212;9.198;2022-07-23T07:48:21;22.30;99.90
8132;DHT22;4107;49.212;9.198;2022-07-23T07:50:46;22.40;99.90
8132;DHT22;4107;49.212;9.198;2022-07-23T07:53:12;22.50;99.90
8132;DHT22;4107;49.212;9.198;2022-07-23T07:55:38;22.60;99.90
8132;DHT22;4107;49.212;9.198;2022-07-23T07:58:03;22.70;99.90
8132;DHT22;4107;49.212;9.198;2022-07-23T08:00:29;22.90;99.90
8132;DHT22;4107;49.212;9.198;2022-07-23T08:02:55;23.10;99.90
8132;DHT22;4107;49.212;9.198;2022-07-23T08:05:25;23.30;99.90
8132;DHT22;4107;49.212;9.198;2022-07-23T08:07:51;23.50;99.90
8132;DHT22;4107;49.212;9.198;2022-07-23T08:10:17;23.60;99.90
8132;DHT22;4107;49.212;9.198;2022-07-23T08:12:48;23.70;99.90
8132;DHT22;4107;49.212;9.198;2022-07-23T08:15:16;23.80;99.90
8132;DHT22;4107;49.212;9.198;2022-07-23T08:17:43;24.00;99.90
8132;DHT22;4107;49.212;9.198;2022-07-23T08:20:10;24.20;99.90
8132;DHT22;4107;49.212;9.198;2022-07-23T08:25:21;24.50;99.90
8132;DHT22;4107;49.212;9.198;2022-07-23T08:27:48;24.50;99.90
8132;DHT22;4107;49.212;9.198;2022-07-23T08:30:14;24.50;99.90
8132;DHT22;4107;49.212;9.198;2022-07-23T08:32:59;24.60;99.90
8132;DHT22;4107;49.212;9.198;2022-07-23T08:35:33;24.70;99.90
8132;DHT22;4107;49.212;9.198;2022-07-23T08:38:01;24.70;99.90
8132;DHT22;4107;49.212;9.198;2022-07-23T08:40:29;24.70;99.90
8132;DHT22;4107;49.212;9.198;2022-07-23T08:42:55;24.80;99.90
8132;DHT22;4107;49.212;9.198;2022-07-23T08:45:22;25.00;99.90
8132;DHT22;4107;49.212;9.198;2022-07-23T08:47:57;25.10;99.90
8132;DHT22;4107;49.212;9.198;2022-07-23T08:50:24;25.30;99.90
8132;DHT22;4107;49.212;9.198;2022-07-23T08:52:51;25.60;99.90
8132;DHT22;4107;49.212;9.198;2022-07-23T08:55:19;25.90;99.90
8132;DHT22;4107;49.212;9.198;2022-07-23T08:57:48;26.20;99.90
8132;DHT22;4107;49.212;9.198;2022-07-23T09:02:42;27.70;99.90
8132;DHT22;4107;49.212;9.198;2022-07-23T09:05:09;30.30;98.30
8132;DHT22;4107;49.212;9.198;2022-07-23T09:07:37;31.50;96.40
8132;DHT22;4107;49.212;9.198;2022-07-23T09:10:10;31.70;96.40
8132;DHT22;4107;49.212;9.198;2022-07-23T09:12:37;32.30;94.40
8132;DHT22;4107;49.212;9.198;2022-07-23T09:15:04;32.40;93.20
8132;DHT22;4107;49.212;9.198;2022-07-23T09:17:38;32.40;93.30
8132;DHT22;4107;49.212;9.198;2022-07-23T09:20:09;32.00;92.70
8132;DHT22;4107;49.212;9.198;2022-07-23T09:22:35;31.60;93.40
8132;DHT22;4107;49.212;9.198;2022-07-23T09:27:48;32.30;94.00
8132;DHT22;4107;49.212;9.198;2022-07-23T09:30:14;33.30;92.80
8132;DHT22;4107;49.212;9.198;2022-07-23T09:32:40;34.00;91.50
8132;DHT22;4107;49.212;9.198;2022-07-23T09:35:06;34.40;90.70
8132;DHT22;4107;49.212;9.198;2022-07-23T09:37:33;35.10;89.30
8132;DHT22;4107;49.212;9.198;2022-07-23T09:40:07;35.60;85.20
8132;DHT22;4107;49.212;9.198;2022-07-23T09:42:34;36.50;85.60
8132;DHT22;4107;49.212;9.198;2022-07-23T09:44:59;37.00;83.50
8132;DHT22;4107;49.212;9.198;2022-07-23T09:47:27;37.50;82.20
8132;DHT22;4107;49.212;9.198;2022-07-23T09:50:05;37.80;80.40
8132;DHT22;4107;49.212;9.198;2022-07-23T09:52:40;38.30;78.40
8132;DHT22;4107;49.212;9.198;2022-07-23T09:55:08;38.40;76.40
8132;DHT22;4107;49.212;9.198;2022-07-23T09:57:34;38.60;75.80
8132;DHT22;4107;49.212;9.198;2022-07-23T10:00:05;38.90;75.30
8132;DHT22;4107;49.212;9.198;2022-07-23T10:02:34;39.40;72.50
8132;DHT22;4107;49.212;9.198;2022-07-23T10:05:02;38.90;71.60
8132;DHT22;4107;49.212;9.198;2022-07-23T10:07:31;38.20;72.50
8132;DHT22;4107;49.212;9.198;2022-07-23T10:09:59;37.60;73.80
8132;DHT22;4107;49.212;9.198;2022-07-23T10:12:25;37.90;73.80
8132;DHT22;4107;49.212;9.198;2022-07-23T10:15:10;38.50;73.70
8132;DHT22;4107;49.212;9.198;2022-07-23T10:17:36;39.00;72.10
8132;DHT22;4107;49.212;9.198;2022-07-23T10:20:03;39.20;69.70
8132;DHT22;4107;49.212;9.198;2022-07-23T10:22:33;39.40;68.10
8132;DHT22;4107;49.212;9.198;2022-07-23T10:25:31;40.10;66.40
8132;DHT22;4107;49.212;9.198;2022-07-23T10:28:12;40.60;65.50
8132;DHT22;4107;49.212;9.198;2022-07-23T10:30:52;40.70;63.60
8132;DHT22;4107;49.212;9.198;2022-07-23T10:33:46;40.90;64.70
8132;DHT22;4107;49.212;9.198;2022-07-23T10:36:40;40.50;62.80
8132;DHT22;4107;49.212;9.198;2022-07-23T10:39:31;40.80;62.90
8132;DHT22;4107;49.212;9.198;2022-07-23T10:42:16;40.50;62.80
8132;DHT22;4107;49.212;9.198;2022-07-23T10:44:47;39.90;62.30
8132;DHT22;4107;49.212;9.198;2022-07-23T10:47:23;40.00;62.60
8132;DHT22;4107;49.212;9.198;2022-07-23T10:49:51;39.90;62.00
8132;DHT22;4107;49.212;9.198;2022-07-23T10:52:19;39.60;64.70
8132;DHT22;4107;49.212;9.198;2022-07-23T10:54:47;38.60;65.10
8132;DHT22;4107;49.212;9.198;2022-07-23T10:57:15;37.70;65.00
8132;DHT22;4107;49.212;9.198;2022-07-23T11:02:31;35.60;67.70
8132;DHT22;4107;49.212;9.198;2022-07-23T11:05:04;35.00;71.30
8132;DHT22;4107;49.212;9.198;2022-07-23T11:07:31;34.50;73.30
8132;DHT22;4107;49.212;9.198;2022-07-23T11:09:57;34.30;97.70
8132;DHT22;4107;49.212;9.198;2022-07-23T11:14:57;34.40;95.50
8132;DHT22;4107;49.212;9.198;2022-07-23T11:17:24;34.20;74.10
8132;DHT22;4107;49.212;9.198;2022-07-23T11:25:00;32.90;97.80
8132;DHT22;4107;49.212;9.198;2022-07-23T13:39:38;32.50;69.30
8132;DHT22;4107;49.212;9.198;2022-07-23T13:42:04;32.60;69.80
8132;DHT22;4107;49.212;9.198;2022-07-23T13:44:29;32.60;68.40
8132;DHT22;4107;49.212;9.198;2022-07-23T13:46:55;32.90;68.80
8132;DHT22;4107;49.212;9.198;2022-07-23T13:49:21;32.80;66.90
8132;DHT22;4107;49.212;9.198;2022-07-23T13:51:46;32.60;67.40
8132;DHT22;4107;49.212;9.198;2022-07-23T13:54:12;32.80;66.90
8132;DHT22;4107;49.212;9.198;2022-07-23T13:56:38;32.70;67.20
8132;DHT22;4107;49.212;9.198;2022-07-23T13:59:03;32.80;67.20
8132;DHT22;4107;49.212;9.198;2022-07-23T14:01:38;32.70;67.70
8132;DHT22;4107;49.212;9.198;2022-07-23T14:04:04;32.80;67.50
8132;DHT22;4107;49.212;9.198;2022-07-23T14:06:30;32.80;67.30
8132;DHT22;4107;49.212;9.198;2022-07-23T14:08:55;32.90;67.20
8132;DHT22;4107;49.212;9.198;2022-07-23T14:11:21;32.80;65.90
8132;DHT22;4107;49.212;9.198;2022-07-23T14:13:46;32.70;67.00
8132;DHT22;4107;49.212;9.198;2022-07-23T14:16:16;32.70;65.80
8132;DHT22;4107;49.212;9.198;2022-07-23T14:18:42;32.80;65.60
8132;DHT22;4107;49.212;9.198;2022-07-23T14:21:08;32.80;65.40
8132;DHT22;4107;49.212;9.198;2022-07-23T14:23:33;32.90;65.80
8132;DHT22;4107;49.212;9.198;2022-07-23T14:25:59;33.00;65.90
8132;DHT22;4107;49.212;9.198;2022-07-23T14:28:25;33.00;65.30
8132;DHT22;4107;49.212;9.198;2022-07-23T14:30:51;33.10;64.40
8132;DHT22;4107;49.212;9.198;2022-07-23T14:33:19;33.10;65.50
8132;DHT22;4107;49.212;9.198;2022-07-23T14:35:46;33.00;66.00
8132;DHT22;4107;49.212;9.198;2022-07-23T14:38:11;32.90;64.90
8132;DHT22;4107;49.212;9.198;2022-07-23T14:40:37;32.80;63.90
8132;DHT22;4107;49.212;9.198;2022-07-23T14:43:03;32.80;65.00
8132;DHT22;4107;49.212;9.198;2022-07-23T14:45:36;32.60;65.20
8132;DHT22;4107;49.212;9.198;2022-07-23T14:48:02;32.30;65.70
8132;DHT22;4107;49.212;9.198;2022-07-23T14:50:28;32.30;66.00
8132;DHT22;4107;49.212;9.198;2022-07-23T14:52:54;32.30;67.30
8132;DHT22;4107;49.212;9.198;2022-07-23T14:55:19;32.20;65.30
8132;DHT22;4107;49.212;9.198;2022-07-23T14:57:54;32.30;65.10
8132;DHT22;4107;49.212;9.198;2022-07-23T15:00:20;32.30;64.30
8132;DHT22;4107;49.212;9.198;2022-07-23T15:02:46;32.40;66.00
8132;DHT22;4107;49.212;9.198;2022-07-23T15:05:11;32.50;66.60
8132;DHT22;4107;49.212;9.198;2022-07-23T15:07:37;32.50;65.50
8132;DHT22;4107;49.212;9.198;2022-07-23T15:10:04;32.20;65.50
8132;DHT22;4107;49.212;9.198;2022-07-23T15:12:33;32.10;64.90
8132;DHT22;4107;49.212;9.198;2022-07-23T15:14:59;31.80;66.60
8132;DHT22;4107;49.212;9.198;2022-07-23T15:17:24;31.80;66.70
8132;DHT22;4107;49.212;9.198;2022-07-23T15:19:50;31.80;67.60
8132;DHT22;4107;49.212;9.198;2022-07-23T15:22:16;31.70;67.80
8132;DHT22;4107;49.212;9.198;2022-07-23T15:24:42;31.60;68.10
8132;DHT22;4107;49.212;9.198;2022-07-23T15:27:11;31.50;68.40
8132;DHT22;4107;49.212;9.198;2022-07-23T15:29:37;31.30;68.60
8132;DHT22;4107;49.212;9.198;2022-07-23T15:32:03;31.20;68.40
8132;DHT22;4107;49.212;9.198;2022-07-23T15:34:29;31.10;69.20
8132;DHT22;4107;49.212;9.198;2022-07-23T15:36:55;31.00;69.60
8132;DHT22;4107;49.212;9.198;2022-07-23T15:39:20;31.00;69.60
8132;DHT22;4107;49.212;9.198;2022-07-23T15:41:55;30.80;70.20
8132;DHT22;4107;49.212;9.198;2022-07-23T15:44:21;30.50;69.60
8132;DHT22;4107;49.212;9.198;2022-07-23T15:46:46;30.40;70.10
8132;DHT22;4107;49.212;9.198;2022-07-23T15:49:13;30.50;70.30
8132;DHT22;4107;49.212;9.198;2022-07-23T15:51:39;30.40;70.20
8132;DHT22;4107;49.212;9.198;2022-07-23T15:54:34;30.40;69.00
8132;DHT22;4107;49.212;9.198;2022-07-23T15:57:00;30.50;69.60
8132;DHT22;4107;49.212;9.198;2022-07-23T15:59:29;30.60;69.60
8132;DHT22;4107;49.212;9.198;2022-07-23T16:01:54;30.70;69.90
8132;DHT22;4107;49.212;9.198;2022-07-23T16:04:23;30.80;69.40
8132;DHT22;4107;49.212;9.198;2022-07-23T16:06:48;30.90;68.40
8132;DHT22;4107;49.212;9.198;2022-07-23T16:09:14;31.00;69.30
8132;DHT22;4107;49.212;9.198;2022-07-23T16:11:40;31.00;68.80
8132;DHT22;4107;49.212;9.198;2022-07-23T16:14:09;30.80;68.80
8132;DHT22;4107;49.212;9.198;2022-07-23T16:16:34;30.80;69.00
8132;DHT22;4107;49.212;9.198;2022-07-23T16:19:00;30.80;69.60
8132;DHT22;4107;49.212;9.198;2022-07-23T16:21:26;30.80;68.50
8132;DHT22;4107;49.212;9.198;2022-07-23T16:23:52;30.70;69.30
8132;DHT22;4107;49.212;9.198;2022-07-23T16:26:18;30.70;70.30
8132;DHT22;4107;49.212;9.198;2022-07-23T16:28:46;30.90;70.30
8132;DHT22;4107;49.212;9.198;2022-07-23T16:31:12;30.90;68.80
8132;DHT22;4107;49.212;9.198;2022-07-23T16:33:41;31.00;68.40
8132;DHT22;4107;49.212;9.198;2022-07-23T16:36:07;31.10;69.00
8132;DHT22;4107;49.212;9.198;2022-07-23T16:38:34;31.10;69.20
8132;DHT22;4107;49.212;9.198;2022-07-23T16:41:00;31.00;69.00
8132;DHT22;4107;49.212;9.198;2022-07-23T16:43:26;31.00;69.30
8132;DHT22;4107;49.212;9.198;2022-07-23T16:45:53;31.00;68.90
8132;DHT22;4107;49.212;9.198;2022-07-23T16:48:22;30.90;69.30
8132;DHT22;4107;49.212;9.198;2022-07-23T16:50:47;30.70;69.60
8132;DHT22;4107;49.212;9.198;2022-07-23T16:53:13;30.60;69.70
8132;DHT22;4107;49.212;9.198;2022-07-23T16:55:39;30.50;70.00
8132;DHT22;4107;49.212;9.198;2022-07-23T16:58:05;30.30;70.90
8132;DHT22;4107;49.212;9.198;2022-07-23T17:12:45;29.70;70.30
8132;DHT22;4107;49.212;9.198;2022-07-23T17:15:21;29.70;71.40
8132;DHT22;4107;49.212;9.198;2022-07-23T17:17:47;29.70;72.00
8132;DHT22;4107;49.212;9.198;2022-07-23T17:20:13;29.80;71.50
8132;DHT22;4107;49.212;9.198;2022-07-23T17:22:57;29.80;71.30
8132;DHT22;4107;49.212;9.198;2022-07-23T17:25:32;29.90;74.20
8132;DHT22;4107;49.212;9.198;2022-07-23T17:27:57;29.90;72.70
8132;DHT22;4107;49.212;9.198;2022-07-23T17:30:23;29.90;71.70
8132;DHT22;4107;49.212;9.198;2022-07-23T17:32:58;29.80;70.60
8132;DHT22;4107;49.212;9.198;2022-07-23T17:35:24;29.70;71.10
8132;DHT22;4107;49.212;9.198;2022-07-23T17:37:58;29.60;71.30
8132;DHT22;4107;49.212;9.198;2022-07-23T17:40:24;29.60;71.40
8132;DHT22;4107;49.212;9.198;2022-07-23T17:42:49;29.50;71.60
8132;DHT22;4107;49.212;9.198;2022-07-23T17:45:24;29.40;70.90
8132;DHT22;4107;49.212;9.198;2022-07-23T17:48:08;29.30;71.40
8132;DHT22;4107;49.212;9.198;2022-07-23T17:50:34;29.20;71.20
8132;DHT22;4107;49.212;9.198;2022-07-23T17:52:59;29.10;73.00
8132;DHT22;4107;49.212;9.198;2022-07-23T17:55:32;29.10;72.10
8132;DHT22;4107;49.212;9.198;2022-07-23T17:58:04;29.20;72.40
8132;DHT22;4107;49.212;9.198;2022-07-23T18:00:35;29.30;73.00
8132;DHT22;4107;49.212;9.198;2022-07-23T18:03:01;29.20;73.00
8132;DHT22;4107;49.212;9.198;2022-07-23T18:05:45;29.20;73.30
8132;DHT22;4107;49.212;9.198;2022-07-23T18:08:22;29.20;73.80
8132;DHT22;4107;49.212;9.198;2022-07-23T18:10:48;29.00;75.30
8132;DHT22;4107;49.212;9.198;2022-07-23T18:13:14;28.80;75.80
8132;DHT22;4107;49.212;9.198;2022-07-23T18:15:50;28.80;75.80
8132;DHT22;4107;49.212;9.198;2022-07-23T18:18:36;28.70;75.10
8132;DHT22;4107;49.212;9.198;2022-07-23T18:21:02;28.70;75.70
8132;DHT22;4107;49.212;9.198;2022-07-23T18:23:39;28.70;76.30
8132;DHT22;4107;49.212;9.198;2022-07-23T18:26:05;28.70;74.80
8132;DHT22;4107;49.212;9.198;2022-07-23T18:28:36;28.70;74.60
8132;DHT22;4107;49.212;9.198;2022-07-23T18:31:02;28.70;75.10
8132;DHT22;4107;49.212;9.198;2022-07-23T18:33:28;28.50;75.50
8132;DHT22;4107;49.212;9.198;2022-07-23T18:36:12;28.40;74.90
8132;DHT22;4107;49.212;9.198;2022-07-23T18:38:43;28.40;76.20
8132;DHT22;4107;49.212;9.198;2022-07-23T18:41:08;28.30;76.10
8132;DHT22;4107;49.212;9.198;2022-07-23T18:43:34;28.20;75.50
8132;DHT22;4107;49.212;9.198;2022-07-23T18:46:13;28.10;77.10